sensor_id;sensor_type;location;lat;lon;timestamp;temperature;humidity
13707;DHT22;6925;47.816;13.072;2024-03-08T00:01:22;5.30;64.70
13707;DHT22;6925;47.816;13.072;2024-03-08T00:03:49;5.30;64.60
13707;DHT22;6925;47.816;13.072;2024-03-08T00:06:17;5.30;64.80
13707;DHT22;6925;47.816;13.072;2024-03-08T00:08:46;5.30;64.90
13707;DHT22;6925;47.816;13.072;2024-03-08T00:11:13;5.30;64.90
13707;DHT22;6925;47.816;13.072;2024-03-08T00:13:40;5.20;64.70
13707;DHT22;6925;47.816;13.072;2024-03-08T00:16:07;5.20;64.90
13707;DHT22;6925;47.816;13.072;2024-03-08T00:18:35;5.20;65.00
13707;DHT22;6925;47.816;13.072;2024-03-08T00:21:02;5.20;65.10
13707;DHT22;6925;47.816;13.072;2024-03-08T00:23:30;5.20;64.90
13707;DHT22;6925;47.816;13.072;2024-03-08T00:26:00;5.20;64.90
13707;DHT22;6925;47.816;13.072;2024-03-08T00:28:29;5.30;64.70
13707;DHT22;6925;47.816;13.072;2024-03-08T00:30:56;5.30;64.60
13707;DHT22;6925;47.816;13.072;2024-03-08T00:33:23;5.20;64.30
13707;DHT22;6925;47.816;13.072;2024-03-08T00:35:50;5.20;64.50
13707;DHT22;6925;47.816;13.072;2024-03-08T00:38:18;5.10;64.70
13707;DHT22;6925;47.816;13.072;2024-03-08T00:40:45;5.20;64.60
13707;DHT22;6925;47.816;13.072;2024-03-08T00:43:13;5.10;64.70
13707;DHT22;6925;47.816;13.072;2024-03-08T00:45:41;5.10;64.80
13707;DHT22;6925;47.816;13.072;2024-03-08T00:48:08;5.10;64.80
13707;DHT22;6925;47.816;13.072;2024-03-08T00:50:36;5.10;64.90
13707;DHT22;6925;47.816;13.072;2024-03-08T00:53:03;5.00;65.60
13707;DHT22;6925;47.816;13.072;2024-03-08T00:55:31;4.90;65.20
13707;DHT22;6925;47.816;13.072;2024-03-08T00:57:59;4.90;65.40
13707;DHT22;6925;47.816;13.072;2024-03-08T01:00:27;4.90;65.50
13707;DHT22;6925;47.816;13.072;2024-03-08T01:02:54;4.90;65.40
13707;DHT22;6925;47.816;13.072;2024-03-08T01:05:21;4.90;65.60
13707;DHT22;6925;47.816;13.072;2024-03-08T01:07:50;4.80;65.70
13707;DHT22;6925;47.816;13.072;2024-03-08T01:10:17;4.80;65.60
13707;DHT22;6925;47.816;13.072;2024-03-08T01:12:44;4.80;65.60
13707;DHT22;6925;47.816;13.072;2024-03-08T01:15:11;4.70;65.90
13707;DHT22;6925;47.816;13.072;2024-03-08T01:17:40;4.70;65.90
13707;DHT22;6925;47.816;13.072;2024-03-08T01:20:08;4.60;66.00
13707;DHT22;6925;47.816;13.072;2024-03-08T01:22:36;4.60;66.10
13707;DHT22;6925;47.816;13.072;2024-03-08T01:25:04;4.70;67.10
13707;DHT22;6925;47.816;13.072;2024-03-08T01:27:31;4.70;66.10
13707;DHT22;6925;47.816;13.072;2024-03-08T01:30:00;4.70;66.20
13707;DHT22;6925;47.816;13.072;2024-03-08T01:32:27;4.70;66.10
13707;DHT22;6925;47.816;13.072;2024-03-08T01:34:56;4.70;66.00
13707;DHT22;6925;47.816;13.072;2024-03-08T01:37:23;4.70;66.00
13707;DHT22;6925;47.816;13.072;2024-03-08T01:39:50;4.70;66.00
13707;DHT22;6925;47.816;13.072;2024-03-08T01:42:18;4.70;66.10
13707;DHT22;6925;47.816;13.072;2024-03-08T01:44:45;4.70;66.20
13707;DHT22;6925;47.816;13.072;2024-03-08T01:47:12;4.70;66.20
13707;DHT22;6925;47.816;13.072;2024-03-08T01:49:39;4.70;66.50
13707;DHT22;6925;47.816;13.072;2024-03-08T01:52:07;4.70;65.90
13707;DHT22;6925;47.816;13.072;2024-03-08T01:54:35;4.70;65.60
13707;DHT22;6925;47.816;13.072;2024-03-08T01:57:02;4.70;65.50
13707;DHT22;6925;47.816;13.072;2024-03-08T01:59:29;4.70;65.60
13707;DHT22;6925;47.816;13.072;2024-03-08T02:02:00;4.60;65.70
13707;DHT22;6925;47.816;13.072;2024-03-08T02:04:28;4.60;65.70
13707;DHT22;6925;47.816;13.072;2024-03-08T02:06:56;4.60;65.80
13707;DHT22;6925;47.816;13.072;2024-03-08T02:09:25;4.60;65.50
13707;DHT22;6925;47.816;13.072;2024-03-08T02:11:52;4.50;65.80
13707;DHT22;6925;47.816;13.072;2024-03-08T02:14:20;4.40;65.80
13707;DHT22;6925;47.816;13.072;2024-03-08T02:16:47;4.40;66.00
13707;DHT22;6925;47.816;13.072;2024-03-08T02:19:16;4.40;66.20
13707;DHT22;6925;47.816;13.072;2024-03-08T02:21:45;4.40;66.30
13707;DHT22;6925;47.816;13.072;2024-03-08T02:24:13;4.40;66.00
13707;DHT22;6925;47.816;13.072;2024-03-08T02:26:40;4.30;66.30
13707;DHT22;6925;47.816;13.072;2024-03-08T02:29:09;4.30;66.50
13707;DHT22;6925;47.816;13.072;2024-03-08T02:31:36;4.30;66.60
13707;DHT22;6925;47.816;13.072;2024-03-08T02:34:05;4.30;66.60
13707;DHT22;6925;47.816;13.072;2024-03-08T02:36:32;4.30;66.60
13707;DHT22;6925;47.816;13.072;2024-03-08T02:39:02;4.30;66.80
13707;DHT22;6925;47.816;13.072;2024-03-08T02:41:29;4.30;66.90
13707;DHT22;6925;47.816;13.072;2024-03-08T02:43:56;4.20;67.10
13707;DHT22;6925;47.816;13.072;2024-03-08T02:46:24;4.20;67.20
13707;DHT22;6925;47.816;13.072;2024-03-08T02:48:51;4.20;67.20
13707;DHT22;6925;47.816;13.072;2024-03-08T02:51:18;4.30;67.40
13707;DHT22;6925;47.816;13.072;2024-03-08T02:53:46;4.30;67.60
13707;DHT22;6925;47.816;13.072;2024-03-08T02:56:15;4.20;67.50
13707;DHT22;6925;47.816;13.072;2024-03-08T02:58:43;4.10;67.80
13707;DHT22;6925;47.816;13.072;2024-03-08T03:01:14;4.10;68.00
13707;DHT22;6925;47.816;13.072;2024-03-08T03:03:41;4.10;68.00
13707;DHT22;6925;47.816;13.072;2024-03-08T03:06:08;4.10;68.00
13707;DHT22;6925;47.816;13.072;2024-03-08T03:08:36;4.10;68.00
13707;DHT22;6925;47.816;13.072;2024-03-08T03:11:04;4.10;68.20
13707;DHT22;6925;47.816;13.072;2024-03-08T03:13:32;4.10;68.20
13707;DHT22;6925;47.816;13.072;2024-03-08T03:15:59;4.10;68.10
13707;DHT22;6925;47.816;13.072;2024-03-08T03:18:27;4.20;68.00
13707;DHT22;6925;47.816;13.072;2024-03-08T03:20:54;4.10;67.90
13707;DHT22;6925;47.816;13.072;2024-03-08T03:23:21;4.10;68.10
13707;DHT22;6925;47.816;13.072;2024-03-08T03:25:49;4.10;68.20
13707;DHT22;6925;47.816;13.072;2024-03-08T03:28:17;4.10;68.00
13707;DHT22;6925;47.816;13.072;2024-03-08T03:30:48;4.10;68.00
13707;DHT22;6925;47.816;13.072;2024-03-08T03:33:16;4.10;68.10
13707;DHT22;6925;47.816;13.072;2024-03-08T03:35:43;4.00;68.20
13707;DHT22;6925;47.816;13.072;2024-03-08T03:38:11;4.00;68.20
13707;DHT22;6925;47.816;13.072;2024-03-08T03:40:40;4.10;68.20
13707;DHT22;6925;47.816;13.072;2024-03-08T03:43:07;4.10;67.80
13707;DHT22;6925;47.816;13.072;2024-03-08T03:45:35;4.10;67.80
13707;DHT22;6925;47.816;13.072;2024-03-08T03:48:05;4.20;67.60
13707;DHT22;6925;47.816;13.072;2024-03-08T03:50:34;4.20;67.40
13707;DHT22;6925;47.816;13.072;2024-03-08T03:53:02;4.10;67.30
13707;DHT22;6925;47.816;13.072;2024-03-08T03:55:29;4.10;67.40
13707;DHT22;6925;47.816;13.072;2024-03-08T03:57:56;4.10;67.60
13707;DHT22;6925;47.816;13.072;2024-03-08T04:00:24;4.10;67.60
13707;DHT22;6925;47.816;13.072;2024-03-08T04:02:52;4.00;67.20
13707;DHT22;6925;47.816;13.072;2024-03-08T04:05:21;4.00;67.50
13707;DHT22;6925;47.816;13.072;2024-03-08T04:07:48;4.00;67.70
13707;DHT22;6925;47.816;13.072;2024-03-08T04:10:17;4.00;67.80
13707;DHT22;6925;47.816;13.072;2024-03-08T04:12:45;4.00;67.70
13707;DHT22;6925;47.816;13.072;2024-03-08T04:15:13;3.90;67.90
13707;DHT22;6925;47.816;13.072;2024-03-08T04:17:40;3.90;68.00
13707;DHT22;6925;47.816;13.072;2024-03-08T04:20:08;3.90;68.20
13707;DHT22;6925;47.816;13.072;2024-03-08T04:22:37;3.80;68.10
13707;DHT22;6925;47.816;13.072;2024-03-08T04:25:05;3.80;68.30
13707;DHT22;6925;47.816;13.072;2024-03-08T04:27:33;3.80;68.10
13707;DHT22;6925;47.816;13.072;2024-03-08T04:30:00;3.80;68.00
13707;DHT22;6925;47.816;13.072;2024-03-08T04:32:27;3.80;67.90
13707;DHT22;6925;47.816;13.072;2024-03-08T04:34:54;3.90;67.90
13707;DHT22;6925;47.816;13.072;2024-03-08T04:37:22;3.80;67.80
13707;DHT22;6925;47.816;13.072;2024-03-08T04:39:51;3.70;67.90
13707;DHT22;6925;47.816;13.072;2024-03-08T04:42:18;3.70;67.70
13707;DHT22;6925;47.816;13.072;2024-03-08T04:44:45;3.70;67.90
13707;DHT22;6925;47.816;13.072;2024-03-08T04:47:12;3.70;67.80
13707;DHT22;6925;47.816;13.072;2024-03-08T04:49:40;3.80;67.80
13707;DHT22;6925;47.816;13.072;2024-03-08T04:52:07;3.70;67.50
13707;DHT22;6925;47.816;13.072;2024-03-08T04:54:34;3.70;67.60
13707;DHT22;6925;47.816;13.072;2024-03-08T04:57:02;3.70;68.00
13707;DHT22;6925;47.816;13.072;2024-03-08T04:59:30;3.70;67.90
13707;DHT22;6925;47.816;13.072;2024-03-08T05:01:57;3.70;68.10
13707;DHT22;6925;47.816;13.072;2024-03-08T05:04:24;3.60;68.10
13707;DHT22;6925;47.816;13.072;2024-03-08T05:06:51;3.60;68.10
13707;DHT22;6925;47.816;13.072;2024-03-08T05:09:19;3.50;68.30
13707;DHT22;6925;47.816;13.072;2024-03-08T05:11:46;3.50;68.40
13707;DHT22;6925;47.816;13.072;2024-03-08T05:14:15;3.50;68.70
13707;DHT22;6925;47.816;13.072;2024-03-08T05:16:45;3.50;68.70
13707;DHT22;6925;47.816;13.072;2024-03-08T05:19:14;3.60;68.90
13707;DHT22;6925;47.816;13.072;2024-03-08T05:21:43;3.50;68.60
13707;DHT22;6925;47.816;13.072;2024-03-08T05:24:11;3.50;68.60
13707;DHT22;6925;47.816;13.072;2024-03-08T05:26:39;3.50;68.70
13707;DHT22;6925;47.816;13.072;2024-03-08T05:29:06;3.50;69.40
13707;DHT22;6925;47.816;13.072;2024-03-08T05:31:42;3.50;68.60
13707;DHT22;6925;47.816;13.072;2024-03-08T05:34:09;3.60;68.70
13707;DHT22;6925;47.816;13.072;2024-03-08T05:36:37;3.60;68.70
13707;DHT22;6925;47.816;13.072;2024-03-08T05:39:04;3.60;68.50
13707;DHT22;6925;47.816;13.072;2024-03-08T05:41:32;3.70;68.30
13707;DHT22;6925;47.816;13.072;2024-03-08T05:43:59;3.70;67.90
13707;DHT22;6925;47.816;13.072;2024-03-08T05:46:26;3.70;67.80
13707;DHT22;6925;47.816;13.072;2024-03-08T05:48:54;3.60;68.00
13707;DHT22;6925;47.816;13.072;2024-03-08T05:51:23;3.60;68.10
13707;DHT22;6925;47.816;13.072;2024-03-08T05:53:51;3.60;68.10
13707;DHT22;6925;47.816;13.072;2024-03-08T05:56:21;3.60;68.20
13707;DHT22;6925;47.816;13.072;2024-03-08T05:58:49;3.60;68.40
13707;DHT22;6925;47.816;13.072;2024-03-08T06:01:16;3.60;67.80
13707;DHT22;6925;47.816;13.072;2024-03-08T06:03:44;3.60;68.30
13707;DHT22;6925;47.816;13.072;2024-03-08T06:06:13;3.70;68.50
13707;DHT22;6925;47.816;13.072;2024-03-08T06:08:40;3.70;68.50
13707;DHT22;6925;47.816;13.072;2024-03-08T06:11:09;3.70;68.40
13707;DHT22;6925;47.816;13.072;2024-03-08T06:13:36;3.60;68.40
13707;DHT22;6925;47.816;13.072;2024-03-08T06:16:05;3.70;68.50
13707;DHT22;6925;47.816;13.072;2024-03-08T06:18:34;3.70;68.40
13707;DHT22;6925;47.816;13.072;2024-03-08T06:21:02;3.70;68.70
13707;DHT22;6925;47.816;13.072;2024-03-08T06:23:32;3.70;68.70
13707;DHT22;6925;47.816;13.072;2024-03-08T06:25:59;3.70;69.70
13707;DHT22;6925;47.816;13.072;2024-03-08T06:28:26;3.70;68.70
13707;DHT22;6925;47.816;13.072;2024-03-08T06:30:53;3.60;68.90
13707;DHT22;6925;47.816;13.072;2024-03-08T06:33:20;3.60;69.20
13707;DHT22;6925;47.816;13.072;2024-03-08T06:35:47;3.60;69.30
13707;DHT22;6925;47.816;13.072;2024-03-08T06:38:14;3.60;69.40
13707;DHT22;6925;47.816;13.072;2024-03-08T06:40:43;3.50;69.50
13707;DHT22;6925;47.816;13.072;2024-03-08T06:43:13;3.60;70.00
13707;DHT22;6925;47.816;13.072;2024-03-08T06:45:41;3.60;70.20
13707;DHT22;6925;47.816;13.072;2024-03-08T06:48:14;3.70;70.00
13707;DHT22;6925;47.816;13.072;2024-03-08T06:50:43;3.70;70.00
13707;DHT22;6925;47.816;13.072;2024-03-08T06:53:10;3.70;70.10
13707;DHT22;6925;47.816;13.072;2024-03-08T06:55:37;3.70;70.00
13707;DHT22;6925;47.816;13.072;2024-03-08T06:58:06;3.70;70.00
13707;DHT22;6925;47.816;13.072;2024-03-08T07:00:33;3.80;70.20
13707;DHT22;6925;47.816;13.072;2024-03-08T07:03:02;3.80;70.50
13707;DHT22;6925;47.816;13.072;2024-03-08T07:05:29;3.90;70.50
13707;DHT22;6925;47.816;13.072;2024-03-08T07:07:58;3.90;70.20
13707;DHT22;6925;47.816;13.072;2024-03-08T07:10:25;3.90;70.40
13707;DHT22;6925;47.816;13.072;2024-03-08T07:12:52;4.00;70.10
13707;DHT22;6925;47.816;13.072;2024-03-08T07:15:21;4.00;70.10
13707;DHT22;6925;47.816;13.072;2024-03-08T07:17:49;4.10;70.50
13707;DHT22;6925;47.816;13.072;2024-03-08T07:20:18;4.10;70.20
13707;DHT22;6925;47.816;13.072;2024-03-08T07:22:45;4.10;69.90
13707;DHT22;6925;47.816;13.072;2024-03-08T07:25:17;4.20;70.30
13707;DHT22;6925;47.816;13.072;2024-03-08T07:27:48;4.30;70.50
13707;DHT22;6925;47.816;13.072;2024-03-08T07:30:15;4.40;70.50
13707;DHT22;6925;47.816;13.072;2024-03-08T07:33:05;4.50;70.40
13707;DHT22;6925;47.816;13.072;2024-03-08T07:35:33;4.60;70.40
13707;DHT22;6925;47.816;13.072;2024-03-08T07:38:03;4.70;70.10
13707;DHT22;6925;47.816;13.072;2024-03-08T07:40:31;4.80;70.10
13707;DHT22;6925;47.816;13.072;2024-03-08T07:42:58;4.90;69.70
13707;DHT22;6925;47.816;13.072;2024-03-08T07:45:26;5.00;69.90
13707;DHT22;6925;47.816;13.072;2024-03-08T07:47:53;5.00;69.80
13707;DHT22;6925;47.816;13.072;2024-03-08T07:50:23;5.10;69.90
13707;DHT22;6925;47.816;13.072;2024-03-08T07:52:50;5.20;69.90
13707;DHT22;6925;47.816;13.072;2024-03-08T07:55:17;5.30;69.90
13707;DHT22;6925;47.816;13.072;2024-03-08T07:57:44;5.40;69.90
13707;DHT22;6925;47.816;13.072;2024-03-08T08:00:14;5.50;69.70
13707;DHT22;6925;47.816;13.072;2024-03-08T08:02:44;5.70;69.80
13707;DHT22;6925;47.816;13.072;2024-03-08T08:05:12;5.70;69.80
13707;DHT22;6925;47.816;13.072;2024-03-08T08:07:44;5.80;69.70
13707;DHT22;6925;47.816;13.072;2024-03-08T08:10:12;6.00;69.70
13707;DHT22;6925;47.816;13.072;2024-03-08T08:12:44;6.10;69.50
13707;DHT22;6925;47.816;13.072;2024-03-08T08:15:12;6.20;69.80
13707;DHT22;6925;47.816;13.072;2024-03-08T08:17:41;6.40;69.60
13707;DHT22;6925;47.816;13.072;2024-03-08T08:20:09;6.60;69.30
13707;DHT22;6925;47.816;13.072;2024-03-08T08:22:37;6.70;69.00
13707;DHT22;6925;47.816;13.072;2024-03-08T08:25:07;6.90;68.80
13707;DHT22;6925;47.816;13.072;2024-03-08T08:27:34;7.00;68.30
13707;DHT22;6925;47.816;13.072;2024-03-08T08:30:02;7.20;68.30
13707;DHT22;6925;47.816;13.072;2024-03-08T08:32:30;7.40;68.30
13707;DHT22;6925;47.816;13.072;2024-03-08T08:34:57;7.50;68.30
13707;DHT22;6925;47.816;13.072;2024-03-08T08:37:25;7.70;68.50
13707;DHT22;6925;47.816;13.072;2024-03-08T08:39:52;7.90;68.20
13707;DHT22;6925;47.816;13.072;2024-03-08T08:42:20;8.10;67.40
13707;DHT22;6925;47.816;13.072;2024-03-08T08:44:47;8.20;66.90
13707;DHT22;6925;47.816;13.072;2024-03-08T08:47:15;8.40;66.50
13707;DHT22;6925;47.816;13.072;2024-03-08T08:49:43;8.50;67.20
13707;DHT22;6925;47.816;13.072;2024-03-08T08:52:11;8.80;67.40
13707;DHT22;6925;47.816;13.072;2024-03-08T08:54:39;9.00;66.70
13707;DHT22;6925;47.816;13.072;2024-03-08T08:57:06;9.20;66.70
13707;DHT22;6925;47.816;13.072;2024-03-08T08:59:34;9.40;65.60
13707;DHT22;6925;47.816;13.072;2024-03-08T09:02:02;9.60;65.40
13707;DHT22;6925;47.816;13.072;2024-03-08T09:04:30;9.70;64.80
13707;DHT22;6925;47.816;13.072;2024-03-08T09:06:57;9.90;64.40
13707;DHT22;6925;47.816;13.072;2024-03-08T09:09:24;10.10;64.70
13707;DHT22;6925;47.816;13.072;2024-03-08T09:11:52;10.30;64.60
13707;DHT22;6925;47.816;13.072;2024-03-08T09:14:20;10.50;64.20
13707;DHT22;6925;47.816;13.072;2024-03-08T09:16:48;10.70;64.70
13707;DHT22;6925;47.816;13.072;2024-03-08T09:19:15;11.00;63.20
13707;DHT22;6925;47.816;13.072;2024-03-08T09:21:43;11.10;63.90
13707;DHT22;6925;47.816;13.072;2024-03-08T09:24:10;11.30;62.90
13707;DHT22;6925;47.816;13.072;2024-03-08T09:26:38;11.50;61.70
13707;DHT22;6925;47.816;13.072;2024-03-08T09:29:07;11.60;61.80
13707;DHT22;6925;47.816;13.072;2024-03-08T09:31:36;11.80;61.30
13707;DHT22;6925;47.816;13.072;2024-03-08T09:34:05;11.90;60.20
13707;DHT22;6925;47.816;13.072;2024-03-08T09:36:34;12.10;59.00
13707;DHT22;6925;47.816;13.072;2024-03-08T09:39:01;12.10;59.40
13707;DHT22;6925;47.816;13.072;2024-03-08T09:41:28;12.20;60.30
13707;DHT22;6925;47.816;13.072;2024-03-08T09:43:56;12.50;60.90
13707;DHT22;6925;47.816;13.072;2024-03-08T09:46:25;12.70;60.20
13707;DHT22;6925;47.816;13.072;2024-03-08T09:48:53;12.90;59.30
13707;DHT22;6925;47.816;13.072;2024-03-08T09:51:27;13.10;59.00
13707;DHT22;6925;47.816;13.072;2024-03-08T09:53:54;13.40;59.40
13707;DHT22;6925;47.816;13.072;2024-03-08T09:56:22;13.50;56.70
13707;DHT22;6925;47.816;13.072;2024-03-08T09:58:50;13.60;56.20
13707;DHT22;6925;47.816;13.072;2024-03-08T10:01:45;13.70;55.70
13707;DHT22;6925;47.816;13.072;2024-03-08T10:04:12;13.80;55.10
13707;DHT22;6925;47.816;13.072;2024-03-08T10:06:41;13.90;55.80
13707;DHT22;6925;47.816;13.072;2024-03-08T10:09:09;14.10;56.40
13707;DHT22;6925;47.816;13.072;2024-03-08T10:11:37;14.40;56.60
13707;DHT22;6925;47.816;13.072;2024-03-08T10:14:05;14.60;55.30
13707;DHT22;6925;47.816;13.072;2024-03-08T10:16:33;14.70;54.80
13707;DHT22;6925;47.816;13.072;2024-03-08T10:19:00;14.90;54.60
13707;DHT22;6925;47.816;13.072;2024-03-08T10:21:28;15.00;53.50
13707;DHT22;6925;47.816;13.072;2024-03-08T10:23:57;15.10;54.00
13707;DHT22;6925;47.816;13.072;2024-03-08T10:26:25;15.20;53.90
13707;DHT22;6925;47.816;13.072;2024-03-08T10:28:52;15.40;53.00
13707;DHT22;6925;47.816;13.072;2024-03-08T10:31:20;15.50;51.90
13707;DHT22;6925;47.816;13.072;2024-03-08T10:33:47;15.70;52.40
13707;DHT22;6925;47.816;13.072;2024-03-08T10:36:15;15.90;53.10
13707;DHT22;6925;47.816;13.072;2024-03-08T10:38:43;16.10;50.70
13707;DHT22;6925;47.816;13.072;2024-03-08T10:41:14;16.20;51.40
13707;DHT22;6925;47.816;13.072;2024-03-08T10:44:09;16.40;51.00
13707;DHT22;6925;47.816;13.072;2024-03-08T10:46:46;16.50;50.90
13707;DHT22;6925;47.816;13.072;2024-03-08T10:49:17;16.40;48.80
13707;DHT22;6925;47.816;13.072;2024-03-08T10:51:45;16.60;50.30
13707;DHT22;6925;47.816;13.072;2024-03-08T10:54:14;16.70;50.90
13707;DHT22;6925;47.816;13.072;2024-03-08T10:56:45;16.80;50.20
13707;DHT22;6925;47.816;13.072;2024-03-08T10:59:12;16.90;48.00
13707;DHT22;6925;47.816;13.072;2024-03-08T11:01:40;16.80;46.20
13707;DHT22;6925;47.816;13.072;2024-03-08T11:04:07;16.70;47.80
13707;DHT22;6925;47.816;13.072;2024-03-08T11:06:42;16.80;49.10
13707;DHT22;6925;47.816;13.072;2024-03-08T11:09:27;17.10;47.20
13707;DHT22;6925;47.816;13.072;2024-03-08T11:12:21;17.20;49.90
13707;DHT22;6925;47.816;13.072;2024-03-08T11:14:51;17.30;47.90
13707;DHT22;6925;47.816;13.072;2024-03-08T11:17:21;17.30;46.20
13707;DHT22;6925;47.816;13.072;2024-03-08T11:19:49;17.10;47.20
13707;DHT22;6925;47.816;13.072;2024-03-08T11:22:21;17.30;47.40
13707;DHT22;6925;47.816;13.072;2024-03-08T11:24:50;17.40;47.70
13707;DHT22;6925;47.816;13.072;2024-03-08T11:27:17;17.40;46.00
13707;DHT22;6925;47.816;13.072;2024-03-08T11:29:59;17.50;47.40
13707;DHT22;6925;47.816;13.072;2024-03-08T11:32:35;17.80;47.10
13707;DHT22;6925;47.816;13.072;2024-03-08T11:35:06;17.90;46.50
13707;DHT22;6925;47.816;13.072;2024-03-08T11:37:34;18.10;48.10
13707;DHT22;6925;47.816;13.072;2024-03-08T11:40:05;18.30;46.40
13707;DHT22;6925;47.816;13.072;2024-03-08T11:42:40;18.30;45.90
13707;DHT22;6925;47.816;13.072;2024-03-08T11:45:14;18.50;46.90
13707;DHT22;6925;47.816;13.072;2024-03-08T11:47:42;18.70;45.70
13707;DHT22;6925;47.816;13.072;2024-03-08T11:50:12;19.00;46.70
13707;DHT22;6925;47.816;13.072;2024-03-08T11:52:40;19.40;46.50
13707;DHT22;6925;47.816;13.072;2024-03-08T11:55:08;19.80;46.00
13707;DHT22;6925;47.816;13.072;2024-03-08T11:57:36;20.00;45.70
13707;DHT22;6925;47.816;13.072;2024-03-08T12:00:04;20.20;43.30
13707;DHT22;6925;47.816;13.072;2024-03-08T12:02:34;20.20;44.60
13707;DHT22;6925;47.816;13.072;2024-03-08T12:05:04;20.10;42.80
13707;DHT22;6925;47.816;13.072;2024-03-08T12:07:35;19.90;41.80
13707;DHT22;6925;47.816;13.072;2024-03-08T12:10:18;20.10;44.30
13707;DHT22;6925;47.816;13.072;2024-03-08T12:12:48;20.10;42.30
13707;DHT22;6925;47.816;13.072;2024-03-08T12:15:16;19.90;42.10
13707;DHT22;6925;47.816;13.072;2024-03-08T12:17:45;19.90;43.90
13707;DHT22;6925;47.816;13.072;2024-03-08T12:20:16;20.00;42.10
13707;DHT22;6925;47.816;13.072;2024-03-08T12:22:43;20.00;42.30
13707;DHT22;6925;47.816;13.072;2024-03-08T12:25:11;20.10;40.50
13707;DHT22;6925;47.816;13.072;2024-03-08T12:27:39;20.20;40.00
13707;DHT22;6925;47.816;13.072;2024-03-08T12:30:20;20.10;42.70
13707;DHT22;6925;47.816;13.072;2024-03-08T12:32:52;20.50;42.50
13707;DHT22;6925;47.816;13.072;2024-03-08T12:35:21;20.80;42.80
13707;DHT22;6925;47.816;13.072;2024-03-08T12:37:50;20.80;39.70
13707;DHT22;6925;47.816;13.072;2024-03-08T12:40:17;20.60;40.80
13707;DHT22;6925;47.816;13.072;2024-03-08T12:42:45;20.70;41.70
13707;DHT22;6925;47.816;13.072;2024-03-08T12:45:14;20.90;40.30
13707;DHT22;6925;47.816;13.072;2024-03-08T12:47:41;21.10;40.50
13707;DHT22;6925;47.816;13.072;2024-03-08T12:50:11;21.50;42.50
13707;DHT22;6925;47.816;13.072;2024-03-08T12:52:38;21.80;41.20
13707;DHT22;6925;47.816;13.072;2024-03-08T12:55:05;22.00;38.90
13707;DHT22;6925;47.816;13.072;2024-03-08T12:57:34;22.10;40.00
13707;DHT22;6925;47.816;13.072;2024-03-08T13:00:02;22.30;40.00
13707;DHT22;6925;47.816;13.072;2024-03-08T13:02:30;22.40;37.80
13707;DHT22;6925;47.816;13.072;2024-03-08T13:04:58;22.50;37.90
13707;DHT22;6925;47.816;13.072;2024-03-08T13:07:26;22.60;38.50
13707;DHT22;6925;47.816;13.072;2024-03-08T13:09:54;22.70;38.20
13707;DHT22;6925;47.816;13.072;2024-03-08T13:12:22;22.90;38.20
13707;DHT22;6925;47.816;13.072;2024-03-08T13:14:49;23.10;37.10
13707;DHT22;6925;47.816;13.072;2024-03-08T13:17:17;23.10;37.50
13707;DHT22;6925;47.816;13.072;2024-03-08T13:19:44;23.30;37.80
13707;DHT22;6925;47.816;13.072;2024-03-08T13:22:11;23.30;36.80
13707;DHT22;6925;47.816;13.072;2024-03-08T13:24:40;23.30;36.60
13707;DHT22;6925;47.816;13.072;2024-03-08T13:27:07;23.20;35.90
13707;DHT22;6925;47.816;13.072;2024-03-08T13:29:49;23.20;35.40
13707;DHT22;6925;47.816;13.072;2024-03-08T13:32:16;23.20;36.40
13707;DHT22;6925;47.816;13.072;2024-03-08T13:34:46;23.30;36.40
13707;DHT22;6925;47.816;13.072;2024-03-08T13:37:16;23.40;36.00
13707;DHT22;6925;47.816;13.072;2024-03-08T13:39:45;23.50;36.00
13707;DHT22;6925;47.816;13.072;2024-03-08T13:42:12;23.60;36.30
13707;DHT22;6925;47.816;13.072;2024-03-08T13:44:45;23.70;36.00
13707;DHT22;6925;47.816;13.072;2024-03-08T13:47:13;23.80;36.50
13707;DHT22;6925;47.816;13.072;2024-03-08T13:49:40;23.90;36.10
13707;DHT22;6925;47.816;13.072;2024-03-08T13:52:09;24.00;35.70
13707;DHT22;6925;47.816;13.072;2024-03-08T13:54:36;24.10;36.20
13707;DHT22;6925;47.816;13.072;2024-03-08T13:57:05;24.10;35.40
13707;DHT22;6925;47.816;13.072;2024-03-08T13:59:33;24.10;34.50
13707;DHT22;6925;47.816;13.072;2024-03-08T14:02:01;24.10;35.40
13707;DHT22;6925;47.816;13.072;2024-03-08T14:04:28;24.10;34.90
13707;DHT22;6925;47.816;13.072;2024-03-08T14:06:55;23.90;33.90
13707;DHT22;6925;47.816;13.072;2024-03-08T14:09:29;23.80;35.40
13707;DHT22;6925;47.816;13.072;2024-03-08T14:11:56;23.80;34.30
13707;DHT22;6925;47.816;13.072;2024-03-08T14:14:25;23.70;34.80
13707;DHT22;6925;47.816;13.072;2024-03-08T14:16:52;23.80;34.70
13707;DHT22;6925;47.816;13.072;2024-03-08T14:19:21;23.80;34.00
13707;DHT22;6925;47.816;13.072;2024-03-08T14:21:48;23.90;34.80
13707;DHT22;6925;47.816;13.072;2024-03-08T14:24:17;23.80;34.00
13707;DHT22;6925;47.816;13.072;2024-03-08T14:26:44;23.90;33.90
13707;DHT22;6925;47.816;13.072;2024-03-08T14:29:12;23.90;33.90
13707;DHT22;6925;47.816;13.072;2024-03-08T14:31:40;23.90;34.30
13707;DHT22;6925;47.816;13.072;2024-03-08T14:34:08;23.90;33.50
13707;DHT22;6925;47.816;13.072;2024-03-08T14:36:36;23.80;33.10
13707;DHT22;6925;47.816;13.072;2024-03-08T14:39:03;23.70;33.40
13707;DHT22;6925;47.816;13.072;2024-03-08T14:41:30;23.70;33.50
13707;DHT22;6925;47.816;13.072;2024-03-08T14:43:57;23.90;33.70
13707;DHT22;6925;47.816;13.072;2024-03-08T14:46:25;23.80;33.10
13707;DHT22;6925;47.816;13.072;2024-03-08T14:48:54;23.80;33.70
13707;DHT22;6925;47.816;13.072;2024-03-08T14:51:22;23.70;33.00
13707;DHT22;6925;47.816;13.072;2024-03-08T14:53:52;23.70;33.10
13707;DHT22;6925;47.816;13.072;2024-03-08T14:56:20;23.70;33.50
13707;DHT22;6925;47.816;13.072;2024-03-08T14:58:48;23.70;33.60
13707;DHT22;6925;47.816;13.072;2024-03-08T15:01:17;23.40;32.40
13707;DHT22;6925;47.816;13.072;2024-03-08T15:03:48;23.20;32.80
13707;DHT22;6925;47.816;13.072;2024-03-08T15:06:16;23.10;32.90
13707;DHT22;6925;47.816;13.072;2024-03-08T15:08:47;23.10;33.10
13707;DHT22;6925;47.816;13.072;2024-03-08T15:11:14;23.00;33.50
13707;DHT22;6925;47.816;13.072;2024-03-08T15:13:47;22.90;33.30
13707;DHT22;6925;47.816;13.072;2024-03-08T15:16:17;22.80;33.90
13707;DHT22;6925;47.816;13.072;2024-03-08T15:18:44;22.70;33.50
13707;DHT22;6925;47.816;13.072;2024-03-08T15:21:14;22.60;33.50
13707;DHT22;6925;47.816;13.072;2024-03-08T15:23:46;22.50;34.20
13707;DHT22;6925;47.816;13.072;2024-03-08T15:26:16;22.40;33.70
13707;DHT22;6925;47.816;13.072;2024-03-08T15:28:43;22.30;34.10
13707;DHT22;6925;47.816;13.072;2024-03-08T15:31:13;22.30;33.90
13707;DHT22;6925;47.816;13.072;2024-03-08T15:33:40;22.30;34.10
13707;DHT22;6925;47.816;13.072;2024-03-08T15:36:10;22.10;33.70
13707;DHT22;6925;47.816;13.072;2024-03-08T15:38:41;21.90;33.80
13707;DHT22;6925;47.816;13.072;2024-03-08T15:41:10;21.70;34.40
13707;DHT22;6925;47.816;13.072;2024-03-08T15:43:39;21.80;35.10
13707;DHT22;6925;47.816;13.072;2024-03-08T15:46:06;21.70;34.80
13707;DHT22;6925;47.816;13.072;2024-03-08T15:48:34;21.50;34.20